Latest Weather Observations for Camden

IDN60901

Issued at 8:01 am EDT Wednesday 22 February 2017 (issued every 10 minutes, with the page automatically refreshed every 10 minutes)

About weather observations | Map of Sydney area stations | Latest observations for Sydney area | Other Formats
Station Details ID: 068192 Name: CAMDEN AIRPORT AWS Lat: -34.04 Lon: 150.69 Height: 73.9 m
Data from the previous 72 hours. | See also: Recent months at Camden
Date/Time
EDT
Temp
°C
App
Temp
°C
Dew
Point
°C
Rel
Hum
%
Delta-T
°C
Wind Press
QNH
hPa
Press
MSL
hPa
Rain since
9am
mm
Dir  Spd
km/h
Gust
km/h
Spd
kts
Gust
kts
22/08:00am 16.8 18.7 15.7 93 0.6 CALM 0 0 0 0 1021.6 1021.3 0.0
22/07:30am 16.0 17.9 15.7 98 0.2 CALM 0 0 0 0 1021.3 1021.0 0.0
22/07:14am 15.6 17.3 15.3 98 0.2 CALM 0 0 0 0 1021.2 1020.9 0.0
22/07:00am 15.1 16.6 14.6 97 0.3 CALM 0 0 0 0 1021.0 1020.7 0.0
22/06:57am 15.0 16.4 14.5 97 0.3 CALM 0 0 0 0 1021.0 1020.7 0.0
22/06:45am 14.8 16.1 14.2 96 0.3 CALM 0 0 0 0 1020.8 1020.5 0.0
22/06:30am 15.0 16.4 14.4 96 0.3 CALM 0 0 0 0 1020.7 1020.4 0.0
22/06:24am 15.1 16.5 14.5 96 0.3 CALM 0 0 0 0 1020.6 1020.3 0.0
22/06:00am 15.2 16.6 14.4 95 0.5 CALM 0 0 0 0 1020.4 1020.1 0.0
22/05:30am 15.0 16.2 13.9 93 0.6 CALM 0 0 0 0 1020.3 1020.0 0.0
22/05:00am 15.4 16.8 14.3 93 0.6 CALM 0 0 0 0 1020.2 1019.9 0.0
22/04:30am 15.7 17.3 14.9 95 0.5 CALM 0 0 0 0 1020.2 1019.9 0.0
22/04:00am 15.9 17.5 14.8 93 0.6 CALM 0 0 0 0 1020.0 1019.7 0.0
22/03:30am 16.0 17.3 14.0 88 1.1 CALM 0 0 0 0 1020.0 1019.7 0.0
22/03:00am 16.5 17.9 14.5 88 1.1 CALM 0 0 0 0 1020.2 1019.9 0.0
22/02:30am 16.6 18.0 14.4 87 1.3 CALM 0 0 0 0 1020.4 1020.1 0.0
22/02:00am 17.3 18.6 14.2 82 1.8 CALM 0 0 0 0 1020.5 1020.2 0.0
22/01:30am 17.6 19.0 14.3 81 1.9 CALM 0 0 0 0 1020.7 1020.4 0.0
22/01:00am 18.3 19.9 14.8 80 2.0 CALM 0 0 0 0 1021.1 1020.8 0.0
22/12:30am 19.1 20.3 13.9 72 3.0 CALM 0 0 0 0 1021.2 1020.9 0.0
22/12:00am 20.2 21.4 13.9 67 3.6 CALM 0 0 0 0 1021.2 1020.9 0.0
 
Date/Time
EDT
Temp
°C
App
Temp
°C
Dew
Point
°C
Rel
Hum
%
Delta-T
°C
Wind Press
QNH
hPa
Press
MSL
hPa
Rain since
9am
mm
Dir  Spd
km/h
Gust
km/h
Spd
kts
Gust
kts
21/11:30pm 20.8 21.3 14.0 65 3.9 N 4 7 2 4 1021.4 1021.1 0.0
21/11:00pm 21.7 20.9 14.1 62 4.4 NNE 11 15 6 8 1021.5 1021.2 0.0
21/10:30pm 22.3 21.2 14.2 60 4.8 NNE 13 24 7 13 1021.4 1021.1 0.0
21/10:00pm 22.6 21.4 13.9 58 5.1 NNE 13 17 7 9 1021.3 1021.0 0.0
21/09:30pm 23.2 21.1 13.7 55 5.5 NNE 17 22 9 12 1020.9 1020.6 0.0
21/09:00pm 23.5 21.1 13.7 54 5.7 NE 19 20 10 11 1020.8 1020.5 0.0
21/08:30pm 23.6 21.8 13.2 52 6.0 ENE 15 22 8 12 1020.4 1020.1 0.0
21/08:00pm 23.4 22.5 14.9 59 5.1 E 13 22 7 12 1020.0 1019.7 0.0
21/07:30pm 23.7 22.6 14.4 56 5.5 E 13 22 7 12 1019.4 1019.1 0.0
21/07:00pm 24.2 22.5 12.5 48 6.7 E 13 20 7 11 1019.3 1019.0 0.0
21/06:30pm 24.5 22.2 11.8 45 7.2 E 15 20 8 11 1018.8 1018.5 0.0
21/06:00pm 25.7 24.1 12.9 45 7.4 E 13 20 7 11 1018.4 1018.1 0.0
21/05:30pm 26.4 24.2 12.1 41 8.3 E 15 24 8 13 1018.1 1017.8 0.0
21/05:00pm 25.8 23.5 11.9 42 8.0 E 15 24 8 13 1018.0 1017.7 0.0
21/04:30pm 26.0 23.0 12.5 43 7.8 E 20 28 11 15 1018.0 1017.7 0.0
21/04:00pm 26.2 23.6 13.3 45 7.6 ESE 19 28 10 15 1018.1 1017.8 0.0
21/03:30pm 25.6 23.6 10.2 38 8.6 ESE 11 20 6 11 1018.0 1017.7 0.0
21/03:00pm 25.4 22.3 10.4 39 8.4 ESE 17 24 9 13 1018.0 1017.7 0.0
21/02:30pm 26.3 23.4 9.6 35 9.2 ENE 15 24 8 13 1018.4 1018.1 0.0
21/02:00pm 26.6 22.9 10.3 36 9.1 NE 20 28 11 15 1018.7 1018.4 0.0
21/01:30pm 25.3 21.5 9.2 36 8.8 NE 19 28 10 15 1019.1 1018.8 0.0
21/01:00pm 26.1 24.1 10.3 37 8.8 NE 11 20 6 11 1019.3 1019.0 0.0
21/12:30pm 27.2 24.8 11.3 37 9.1 NNE 15 22 8 12 1019.6 1019.3 0.0
21/12:00pm 25.9 23.3 9.3 35 9.1 NE 13 24 7 13 1020.1 1019.8 0.0
21/11:30am 24.9 23.3 8.0 34 9.0 NW 6 11 3 6 1020.4 1020.1 0.0
21/11:00am 24.1 22.1 7.3 34 8.8 SSW 7 11 4 6 1020.7 1020.4 0.0
21/10:30am 23.3 21.9 9.0 40 7.7 S 6 11 3 6 1020.7 1020.4 0.0
21/10:00am 21.7 20.2 8.6 43 6.9 SSE 6 11 3 6 1020.6 1020.3 0.0
21/09:30am 19.7 17.5 7.8 46 6.1 SW 9 13 5 7 1020.4 1020.1 0.0
21/09:00am 18.1 18.1 9.7 58 4.4 CALM 0 0 0 0 1020.2 1019.9 0.0
21/08:30am 16.5 15.5 8.7 60 4.0 SW 4 7 2 4 1019.7 1019.4 0.0
21/08:00am 14.3 14.3 9.9 75 2.3 CALM 0 0 0 0 1019.5 1019.2 0.0
21/07:30am 12.8 12.8 9.8 82 1.5 CALM 0 0 0 0 1019.1 1018.8 0.0
21/07:00am 11.0 10.5 7.9 81 1.5 CALM 0 0 0 0 1018.5 1018.2 0.0
21/06:30am 11.1 9.5 7.8 80 1.6 SSE 6 9 3 5 1018.3 1018.0 0.0
21/06:00am 11.3 11.0 8.5 83 1.4 CALM 0 0 0 0 1018.1 1017.8 0.0
21/05:30am 11.9 11.2 6.8 71 2.4 CALM 0 0 0 0 1017.7 1017.4 0.0
21/05:00am 11.6 11.3 8.8 83 1.4 CALM 0 0 0 0 1017.5 1017.2 0.0
21/04:30am 11.7 11.0 7.0 73 2.3 CALM 0 4 0 2 1017.5 1017.2 0.0
21/04:00am 11.8 11.3 7.9 77 1.9 CALM 0 0 0 0 1017.6 1017.3 0.0
21/03:30am 12.6 11.6 5.8 63 3.2 CALM 0 0 0 0 1017.5 1017.2 0.0
21/03:00am 12.2 11.6 7.5 73 2.3 CALM 0 4 0 2 1017.4 1017.1 0.0
21/02:30am 13.5 12.3 6.6 63 3.3 SSE 2 7 1 4 1017.4 1017.1 0.0
21/02:00am 13.3 12.4 5.9 61 3.5 CALM 0 6 0 3 1017.3 1017.0 0.0
21/01:30am 13.7 12.9 6.6 62 3.4 CALM 0 0 0 0 1017.4 1017.1 0.0
21/01:00am 14.2 12.1 6.8 61 3.6 SSE 7 11 4 6 1017.7 1017.4 0.0
21/12:30am 14.3 12.1 6.2 58 3.9 SSW 7 9 4 5 1017.7 1017.4 0.0
21/12:00am 15.1 14.8 8.6 65 3.3 CALM 0 0 0 0 1017.3 1017.0 0.0
 
Date/Time
EDT
Temp
°C
App
Temp
°C
Dew
Point
°C
Rel
Hum
%
Delta-T
°C
Wind Press
QNH
hPa
Press
MSL
hPa
Rain since
9am
mm
Dir  Spd
km/h
Gust
km/h
Spd
kts
Gust
kts
20/11:30pm 16.8 15.8 5.7 48 5.4 CALM 0 0 0 0 1017.0 1016.6 0.0
20/11:00pm 16.7 16.0 6.8 52 4.9 CALM 0 0 0 0 1016.6 1016.2 0.0
20/10:30pm 19.2 18.1 4.9 39 6.9 CALM 0 0 0 0 1016.3 1015.9 0.0
20/10:00pm 19.8 18.0 5.5 39 7.0 NNW 4 9 2 5 1016.0 1015.6 0.0
20/09:30pm 21.0 16.6 2.8 30 8.6 ENE 15 20 8 11 1015.2 1014.9 0.0
20/09:00pm 19.7 17.9 1.2 29 8.4 CALM 0 0 0 0 1014.3 1014.0 0.0
20/08:30pm 21.3 18.1 1.0 26 9.3 SW 7 11 4 6 1013.6 1013.3 0.0
20/08:00pm 22.0 17.6 0.5 24 9.8 SW 13 15 7 8 1012.9 1012.6 0.0
20/07:30pm 23.8 19.8 0.2 21 10.8 SW 11 17 6 9 1012.3 1012.0 0.0
20/07:00pm 25.2 20.1 -1.6 17 12.0 SW 15 20 8 11 1011.6 1011.3 0.0
20/06:30pm 26.2 20.9 -0.8 17 12.4 WSW 17 24 9 13 1011.1 1010.8 0.0
20/06:00pm 26.7 22.0 -2.1 15 13.0 SW 13 24 7 13 1010.8 1010.5 0.0
20/05:30pm 26.7 20.7 -1.2 16 12.8 WSW 20 28 11 15 1010.4 1010.1 0.0
20/05:00pm 27.0 22.2 -0.1 17 12.7 WSW 15 28 8 15 1010.2 1009.9 0.0
20/04:30pm 26.6 20.8 -0.4 17 12.5 SW 20 32 11 17 1010.0 1009.7 0.0
20/04:00pm 26.7 20.6 0.4 18 12.4 SW 22 30 12 16 1010.0 1009.7 0.0
20/03:30pm 26.3 20.5 0.1 18 12.2 SW 20 28 11 15 1010.1 1009.8 0.0
20/03:00pm 26.1 22.1 0.7 19 12.0 WSW 11 24 6 13 1010.1 1009.8 0.0
20/02:30pm 25.7 20.0 -0.4 18 12.0 WSW 19 30 10 16 1010.2 1009.9 0.0
20/02:00pm 25.3 19.5 0.0 19 11.7 W 20 32 11 17 1010.3 1010.0 0.0
20/01:30pm 24.3 19.7 -0.8 19 11.3 WSW 13 26 7 14 1010.6 1010.3 0.0
20/01:00pm 24.4 18.4 1.3 22 10.9 WSW 22 30 12 16 1010.9 1010.6 0.0
20/12:30pm 23.2 16.7 0.3 22 10.5 WSW 24 33 13 18 1010.9 1010.6 0.0
20/12:00pm 23.0 17.1 1.9 25 10.0 WSW 22 37 12 20 1011.0 1010.7 0.0
20/11:30am 22.0 15.5 0.5 24 9.8 W 24 33 13 18 1011.2 1010.9 0.0
20/11:00am 22.2 16.6 3.3 29 9.1 WSW 22 32 12 17 1011.5 1011.2 0.0
20/10:30am 21.0 15.7 2.8 30 8.6 W 20 30 11 16 1011.8 1011.5 0.0
20/10:00am 20.0 14.2 2.4 31 8.2 WSW 22 30 12 16 1011.7 1011.4 0.0
20/09:30am 18.9 12.7 2.3 33 7.6 W 24 35 13 19 1011.5 1011.2 0.0
20/09:00am 18.2 11.4 2.9 36 7.1 W 28 41 15 22 1011.5 1011.2 12.4
20/08:30am 17.8 12.2 3.7 39 6.6 W 22 32 12 17 1011.5 1011.2 12.4
20/08:00am 17.1 12.8 5.4 46 5.7 W 17 24 9 13 1011.5 1011.2 12.4
20/07:30am 15.8 13.0 6.8 55 4.4 WSW 11 15 6 8 1011.1 1010.8 12.4
20/07:00am 14.9 12.4 6.5 57 4.1 W 9 11 5 6 1010.9 1010.6 12.4
20/06:30am 15.4 10.8 6.4 55 4.4 WSW 20 24 11 13 1010.4 1010.1 12.4
20/06:00am 15.8 13.2 6.0 52 4.8 WSW 9 15 5 8 1009.9 1009.6 12.4
20/05:30am 15.9 12.0 5.5 50 5.0 SW 15 24 8 13 1009.6 1009.3 12.4
20/05:00am 16.6 13.2 4.0 43 5.9 WSW 11 17 6 9 1009.2 1008.9 12.4
20/04:30am 16.2 12.9 4.3 45 5.6 WSW 11 17 6 9 1008.8 1008.5 12.4
20/04:00am 17.5 12.9 3.8 40 6.4 WSW 17 26 9 14 1008.4 1008.1 12.4
20/03:30am 16.4 13.4 4.1 44 5.8 WSW 9 13 5 7 1008.1 1007.8 12.4
20/03:00am 16.6 12.2 4.6 45 5.7 WSW 17 24 9 13 1007.7 1007.4 12.4
20/02:30am 16.9 13.3 5.2 46 5.6 SW 13 24 7 13 1007.5 1007.2 12.4
20/02:00am 17.1 14.2 4.8 44 5.9 SSW 9 13 5 7 1007.5 1007.2 12.4
20/01:30am 15.5 12.6 8.0 61 3.8 WSW 13 19 7 10 1007.5 1007.2 12.4
20/01:00am 16.5 13.4 7.2 54 4.7 WSW 13 17 7 9 1007.3 1007.0 12.4
20/12:30am 16.8 14.7 9.7 63 3.7 W 11 24 6 13 1007.5 1007.2 12.4
20/12:00am 15.9 16.4 15.6 98 0.2 SE 7 9 4 5 1007.5 1007.2 12.4
 
Date/Time
EDT
Temp
°C
App
Temp
°C
Dew
Point
°C
Rel
Hum
%
Delta-T
°C
Wind Press
QNH
hPa
Press
MSL
hPa
Rain since
9am
mm
Dir  Spd
km/h
Gust
km/h
Spd
kts
Gust
kts
19/11:30pm 16.1 18.0 15.8 98 0.2 CALM 0 0 0 0 1007.6 1007.3 12.4
19/11:00pm 16.3 18.3 16.0 98 0.2 CALM 0 0 0 0 1007.6 1007.3 12.4
19/10:30pm 16.5 18.5 16.0 97 0.3 CALM 0 0 0 0 1007.6 1007.3 12.4
19/10:00pm 16.3 18.2 15.7 96 0.4 CALM 0 0 0 0 1007.0 1006.7 12.4
19/09:30pm 16.6 16.9 16.0 96 0.4 SSW 9 11 5 6 1006.7 1006.4 12.4
19/09:00pm 16.8 17.5 16.2 96 0.4 S 7 11 4 6 1007.0 1006.7 12.4
19/08:33pm 16.6 16.2 16.1 97 0.3 SE 13 19 7 10 1007.0 1006.7 12.2
19/08:30pm 16.6 15.8 16.1 97 0.3 SE 15 20 8 11 1007.0 1006.7 12.2
19/08:06pm 18.3 15.8 14.0 76 2.5 SW 20 39 11 21 1006.9 1006.6 1.2
19/08:03pm 20.6 18.7 14.3 67 3.7 SSW 17 39 9 21 1006.9 1006.6 0.0
19/08:00pm 22.4 22.3 16.0 67 3.9 SE 11 17 6 9 1006.6 1006.3 0.0
19/07:30pm 22.3 21.7 15.6 66 4.0 E 13 20 7 11 1005.7 1005.4 0.0
19/07:00pm 23.0 22.0 15.6 63 4.5 E 15 22 8 12 1005.7 1005.4 0.0
19/06:30pm 23.8 23.4 15.3 59 5.1 E 11 20 6 11 1005.3 1004.9 0.0
19/06:00pm 24.6 22.4 14.4 53 6.1 ENE 19 30 10 16 1004.7 1004.3 0.0
19/05:30pm 24.7 22.3 13.9 51 6.4 E 19 30 10 16 1004.5 1004.1 0.0
19/05:00pm 25.8 23.5 14.0 48 7.0 E 19 33 10 18 1004.4 1004.0 0.0
19/04:30pm 28.2 26.4 9.5 31 10.4 - 9 24 5 13 1004.2 1003.8 0.0
19/04:00pm 27.8 25.9 9.1 31 10.4 ESE 9 15 5 8 1004.5 1004.1 0.0
19/03:30pm 27.3 25.1 9.2 32 10.0 N 11 19 6 10 1005.0 1004.6 0.0
19/03:00pm 27.2 26.0 10.4 35 9.5 WNW 7 13 4 7 1005.5 1005.2 0.0
19/02:30pm 26.3 22.9 9.2 34 9.4 N 17 24 9 13 1005.9 1005.6 0.0
19/02:00pm 26.4 24.3 8.4 32 9.8 N 9 20 5 11 1006.3 1006.0 0.0
19/01:30pm 25.4 23.3 8.4 34 9.2 SW 9 17 5 9 1006.9 1006.6 0.0
19/01:00pm 24.1 22.2 7.7 35 8.7 SSE 7 15 4 8 1007.4 1007.1 0.0
19/12:30pm 23.9 23.0 9.1 39 8.0 W 4 9 2 5 1007.9 1007.6 0.0
19/12:00pm 22.6 20.9 8.3 40 7.6 SSE 7 13 4 7 1008.5 1008.2 0.0
19/11:30am 21.2 20.3 9.4 47 6.3 S 4 11 2 6 1009.0 1008.7 0.0
19/11:00am 21.4 19.4 10.3 49 6.1 WSW 11 19 6 10 1009.2 1008.9 0.0
19/10:30am 21.7 19.8 10.5 49 6.1 SW 11 20 6 11 1009.3 1009.0 0.0
19/10:00am 20.5 18.0 12.2 59 4.7 SW 17 24 9 13 1009.5 1009.2 0.0
19/09:30am 20.3 17.5 12.5 61 4.4 SSW 19 24 10 13 1009.4 1009.1 0.0
19/09:00am 19.3 16.8 12.3 64 3.9 SW 17 22 9 12 1009.6 1009.3 1.4
19/08:30am 18.9 17.3 12.9 68 3.4 SW 13 19 7 10 1009.4 1009.1 1.4

Latest Capital City Observations: Canberra | Sydney | Melbourne | Brisbane | Adelaide | Perth | Hobart | Darwin

Other Formats:

Comma delimited format used in spreadsheet applications
http://www.bom.gov.au/fwo/IDN60901/IDN60901.94755.axf

JavaScript Object Notation format (JSON) in row-major order
http://www.bom.gov.au/fwo/IDN60901/IDN60901.94755.json